CheckWX is a tool to help pilots better visualize weather data.  It is not intended as a substitute for an official pre-flight weather briefing.

07:29:22 UTC

LGIO TAF
Ioannina Airport
Ioannina, Greece
TAF LGIO 200500Z 2006/2015 VRB03KT 9999 FEW025 BECMG 2009/2011 SCT025 SCT080 PROB30 TEMPO 2012/2015 4000 TSRA FEW018CB SCT020 BKN070

Jun-20@
06:00 UTC

Jun-20 @ 06:00 UTC

Jun-20@
09:00 UTC

Jun-20 @ 09:00 UTC

TAF LGIO 200500Z 2006/2015 VRB03KT 9999 FEW025
Wind
  • Variable at 3 KTS
Cloud Levels
  • Few at 2,500' AGL

Jun-20@
09:00 UTC

Jun-20 @ 09:00 UTC

Jun-20@
15:00 UTC

Jun-20 @ 15:00 UTC

BECMG 2009/2011 SCT025 SCT080

Becoming

Becoming Conditions expected by Thu, Jun 20, 2019 @ 11:00 UTC

Wind
  • Variable at 3 KTS
Cloud Levels
  • Scattered at 2,500' AGL
  • Scattered at 8,000' AGL

Jun-20@
12:00 UTC

Jun-20 @ 12:00 UTC

Jun-20@
15:00 UTC

Jun-20 @ 15:00 UTC

PROB30 TEMPO 2012/2015 4000 TSRA FEW018CB SCT020 BKN070

Temporary - 30% Likelihood

Temporary - 30% Likelihood during this time.

Conditions
Thunderstorm, Rain
Cloud Levels
  • Few at 1,800' AGL
  • Scattered at 2,000' AGL
  • Broken at 7,000' AGL